Time;durP1;ratioP1;P1;durP2;ratioP2;P2;SDS_P1;SDS_P2;PMS_P1;PMS_P2;Temp;Humidity;BMP_temperature;BMP_pressure;BME280_temperature;BME280_humidity;BME280_pressure;Samples;Min_cycle;Max_cycle;Signal;HPM_P1;HPM_P2
2023/12/15 00:13:53;;;;;;;;;;;;;;;;;;10333703;28;19934;-91
2023/12/15 00:18:56;;;;;;;;;;;;;;;;;;10307244;28;19937;-91
2023/12/15 00:29:24;;;;;;;;;;;;;;;;;;10600025;23;19918;-88
2023/12/15 00:39:59;;;;;;;;;;;;;;;;;;10376040;28;20745;-89
2023/12/15 00:50:22;;;;;;;;;;;;;;;;;;10390173;28;19929;-88
2023/12/15 00:55:29;;;;;;;;;;;;;;;;;;10435865;23;20266;-89
2023/12/15 01:00:32;;;;;;;;;;;;;;;;;;10364732;28;19985;-88
2023/12/15 01:05:50;;;;;;;;;;;;;;;;;;10386766;28;19905;-89
2023/12/15 01:10:52;;;;;;;;;;;;;;;;;;10385688;28;19906;-87
2023/12/15 01:15:54;;;;;;;;;;;;;;;;;;10384791;23;20406;-89
2023/12/15 01:21:04;;;;;;;;;;;;;;;;;;10321126;23;19934;-90
2023/12/15 01:26:27;;;;;;;;;;;;;;;;;;10258722;28;20502;-88
2023/12/15 01:31:34;;;;;;;;;;;;;;;;;;10311065;28;19926;-90
2023/12/15 01:36:37;;;;;;;;;;;;;;;;;;10321817;28;19917;-92
2023/12/15 01:41:39;;;;;;;;;;;;;;;;;;10354957;28;19926;-92
2023/12/15 01:46:48;;;;;;;;;;;;;;;;;;10341170;28;19944;-91
2023/12/15 01:51:55;;;;;;;;;;;;;;;;;;10318993;28;19914;-93
2023/12/15 01:57:05;;;;;;;;;;;;;;;;;;10283476;28;19993;-90
2023/12/15 02:02:06;;;;;;;;;;;;;;;;;;10297085;28;19914;-90
2023/12/15 02:07:12;;;;;;;;;;;;;;;;;;10347745;28;19921;-89
2023/12/15 02:12:14;;;;;;;;;;;;;;;;;;10327711;28;19913;-89
2023/12/15 02:17:15;;;;;;;;;;;;;;;;;;10356830;28;19965;-89
2023/12/15 02:22:18;;;;;;;;;;;;;;;;;;10410812;23;19941;-89
2023/12/15 02:27:25;;;;;;;;;;;;;;;;;;10296680;28;19941;-90
2023/12/15 02:37:49;;;;;;;;;;;;;;;;;;10381368;23;19939;-88
2023/12/15 02:42:51;;;;;;;;;;;;;;;;;;10311526;28;19929;-90
2023/12/15 02:47:55;;;;;;;;;;;;;;;;;;10292931;28;20330;-90
2023/12/15 02:52:59;;;;;;;;;;;;;;;;;;10286865;28;19979;-89
2023/12/15 02:58:41;;;;;;;;;;;;;;;;;;10273568;28;19930;-93
2023/12/15 03:03:49;;;;;;;;;;;;;;;;;;10317847;28;19993;-94
2023/12/15 03:08:49;;;;;;;;;;;;;;;;;;10331080;28;20423;-94
2023/12/15 03:13:50;;;;;;;;;;;;;;;;;;10274917;28;19926;-93
2023/12/15 03:18:53;;;;;;;;;;;;;;;;;;10351080;28;19945;-94
2023/12/15 03:24:07;;;;;;;;;;;;;;;;;;10298855;28;19932;-88
2023/12/15 03:29:07;;;;;;;;;;;;;;;;;;10263898;28;19943;-90
2023/12/15 03:44:45;;;;;;;;;;;;;;;;;;10342819;28;19922;-91
2023/12/15 03:49:57;;;;;;;;;;;;;;;;;;10291570;28;19926;-89
2023/12/15 03:55:20;;;;;;;;;;;;;;;;;;10302462;28;20022;-89
2023/12/15 04:00:21;;;;;;;;;;;;;;;;;;10257989;28;19922;-90
2023/12/15 04:05:24;;;;;;;;;;;;;;;;;;10262306;28;19938;-91
2023/12/15 04:10:51;;;;;;;;;;;;;;;;;;10254147;28;19947;-91
2023/12/15 04:15:53;;;;;;;;;;;;;;;;;;10276701;28;19930;-90
2023/12/15 04:21:22;;;;;;;;;;;;;;;;;;10345332;28;20007;-89
2023/12/15 04:26:24;;;;;;;;;;;;;;;;;;10304200;28;20002;-89
2023/12/15 04:31:44;;;;;;;;;;;;;;;;;;;;;
2023/12/15 04:37:13;;;;;;;;;;;;;;;;;;10524936;23;19913;-89
2023/12/15 04:42:14;;;;;;;;;;;;;;;;;;10307664;28;20298;-90
2023/12/15 04:47:15;;;;;;;;;;;;;;;;;;10336471;28;19906;-89
2023/12/15 04:52:22;;;;;;;;;;;;;;;;;;10310859;28;19984;-92
2023/12/15 04:57:24;;;;;;;;;;;;;;;;;;10247912;28;19918;-90
2023/12/15 05:02:36;;;;;;;;;;;;;;;;;;10269173;28;19929;-89
2023/12/15 05:12:52;;;;;;;;;;;;;;;;;;10358624;28;20512;-88
2023/12/15 05:18:04;;;;;;;;;;;;;;;;;;10306881;28;19985;-92
2023/12/15 05:23:06;;;;;;;;;;;;;;;;;;10296850;23;19934;-88
2023/12/15 05:28:15;;;;;;;;;;;;;;;;;;10189745;28;19923;-88
2023/12/15 05:33:15;;;;;;;;;;;;;;;;;;10205137;28;19953;-89
2023/12/15 05:38:16;;;;;;;;;;;;;;;;;;10314649;23;19993;-89
2023/12/15 05:43:19;;;;;;;;;;;;;;;;;;10209682;28;20025;-89
2023/12/15 05:48:29;;;;;;;;;;;;;;;;;;10204179;28;20005;-90
2023/12/15 06:04:15;;;;;;;;;;;;;;;;;;10297191;28;19914;-88
2023/12/15 06:09:16;;;;;;;;;;;;;;;;;;10270174;28;20030;-88
2023/12/15 06:14:32;;;;;;;;;;;;;;;;;;10239330;28;20367;-88
2023/12/15 06:19:52;;;;;;;;;;;;;;;;;;10276535;28;20017;-88
2023/12/15 06:24:53;;;;;;;;;;;;;;;;;;10192256;28;19941;-87
2023/12/15 06:30:11;;;;;;;;;;;;;;;;;;10134222;28;19934;-92
2023/12/15 06:35:27;;;;;;;;;;;;;;;;;;10135395;29;19930;-89
2023/12/15 06:40:37;;;;;;;;;;;;;;;;;;10160989;29;19927;-88
2023/12/15 06:45:42;;;;;;;;;;;;;;;;;;10133805;29;20008;-90
2023/12/15 06:50:46;;;;;;;;;;;;;;;;;;10106194;29;19927;-92
2023/12/15 06:55:47;;;;;;;;;;;;;;;;;;10198693;29;19950;-90
2023/12/15 07:00:47;;;;;;;;;;;;;;;;;;10201104;28;19965;-91
2023/12/15 07:05:55;;;;;;;;;;;;;;;;;;10239763;28;19917;-90
2023/12/15 07:10:58;;;;;;;;;;;;;;;;;;10171443;28;19930;-89
2023/12/15 07:16:10;;;;;;;;;;;;;;;;;;10169006;28;19955;-90
2023/12/15 07:21:42;;;;;;;;;;;;;;;;;;10232969;23;19933;-89
2023/12/15 07:26:47;;;;;;;;;;;;;;;;;;10299960;28;20449;-86
2023/12/15 07:31:47;;;;;;;;;;;;;;;;;;10263763;28;19926;-88
2023/12/15 07:36:49;;;;;;;;;;;;;;;;;;10279604;28;20008;-88
2023/12/15 07:41:52;;;;;;;;;;;;;;;;;;10274256;28;19992;-89
2023/12/15 07:46:55;;;;;;;;;;;;;;;;;;10271670;28;20826;-87
2023/12/15 07:51:56;;;;;;;;;;;;;;;;;;10230573;23;19930;-88
2023/12/15 07:56:56;;;;;;;;;;;;;;;;;;10291389;28;20476;-88
2023/12/15 08:01:59;;;;;;;;;;;;;;;;;;10290242;28;19934;-88
2023/12/15 08:07:00;;;;;;;;;;;;;;;;;;10285470;28;19907;-87
2023/12/15 08:12:01;;;;;;;;;;;;;;;;;;10309345;28;19922;-86
2023/12/15 08:17:01;;;;;;;;;;;;;;;;;;10269105;28;19923;-87
2023/12/15 08:22:01;;;;;;;;;;;;;;;;;;10213725;28;19962;-86
2023/12/15 08:27:02;;;;;;;;;;;;;;;;;;10219158;28;19930;-87
2023/12/15 08:32:02;;;;;;;;;;;;;;;;;;10199555;28;19949;-87
2023/12/15 08:37:04;;;;;;;;;;;;;;;;;;10242215;28;19938;-90
2023/12/15 08:42:05;;;;;;;;;;;;;;;;;;10718452;23;19922;-86
2023/12/15 08:47:05;;;;;;;;;;;;;;;;;;10372143;28;20094;-88
2023/12/15 08:52:06;;;;;;;;;;;;;;;;;;10413593;28;19906;-87
2023/12/15 08:57:07;;;;;;;;;;;;;;;;;;10473076;23;19922;-85
2023/12/15 09:02:09;;;;;;;;;;;;;;;;;;10333317;28;20069;-86
2023/12/15 09:07:11;;;;;;;;;;;;;;;;;;10340955;28;19906;-87
2023/12/15 09:12:11;;;;;;;;;;;;;;;;;;10313708;28;19954;-87
2023/12/15 09:17:13;;;;;;;;;;;;;;;;;;10290439;28;19921;-86
2023/12/15 09:22:13;;;;;;;;;;;;;;;;;;10319794;28;19929;-88
2023/12/15 09:27:14;;;;;;;;;;;;;;;;;;10316650;28;20086;-88
2023/12/15 09:32:14;;;;;;;;;;;;;;;;;;10334662;28;19918;-86
2023/12/15 09:37:20;;;;;;;;;;;;;;;;;;10328867;28;19918;-85
2023/12/15 09:42:23;;;;;;;;;;;;;;;;;;10325145;28;19913;-87
2023/12/15 09:47:23;;;;;;;;;;;;;;;;;;10305539;28;19925;-88
2023/12/15 09:52:25;;;;;;;;;;;;;;;;;;10300174;28;19977;-89
2023/12/15 09:57:25;;;;;;;;;;;;;;;;;;10295803;28;19936;-89
2023/12/15 10:02:25;;;;;;;;;;;;;;;;;;10257911;28;19940;-87
2023/12/15 10:07:26;;;;;;;;;;;;;;;;;;10299557;28;19953;-88
2023/12/15 10:12:28;;;;;;;;;;;;;;;;;;10264102;28;20375;-86
2023/12/15 10:17:28;;;;;;;;;;;;;;;;;;10280272;28;19926;-86
2023/12/15 10:22:29;;;;;;;;;;;;;;;;;;10323414;28;20012;-88
2023/12/15 10:27:31;;;;;;;;;;;;;;;;;;10340074;28;21029;-87
2023/12/15 10:32:32;;;;;;;;;;;;;;;;;;10315180;28;20362;-87
2023/12/15 10:37:32;;;;;;;;;;;;;;;;;;10342888;28;19927;-84
2023/12/15 10:42:34;;;;;;;;;;;;;;;;;;10330675;28;19926;-87
2023/12/15 10:47:34;;;;;;;;;;;;;;;;;;10364148;28;19945;-89
2023/12/15 10:52:35;;;;;;;;;;;;;;;;;;10377601;28;19930;-85
2023/12/15 10:57:35;;;;;;;;;;;;;;;;;;10408059;28;19906;-88
2023/12/15 11:02:37;;;;;;;;;;;;;;;;;;10401532;28;19932;-88
2023/12/15 11:07:38;;;;;;;;;;;;;;;;;;10418347;28;19940;-87
2023/12/15 11:12:39;;;;;;;;;;;;;;;;;;10356351;23;19964;-86
2023/12/15 11:17:39;;;;;;;;;;;;;;;;;;10329489;28;19952;-88
2023/12/15 11:22:44;;;;;;;;;;;;;;;;;;10296841;28;19933;-87
2023/12/15 11:27:44;;;;;;;;;;;;;;;;;;10262661;28;19926;-85
2023/12/15 11:32:45;;;;;;;;;;;;;;;;;;10282123;28;19925;-88
2023/12/15 11:37:47;;;;;;;;;;;;;;;;;;10345154;28;19930;-89
2023/12/15 11:42:50;;;;;;;;;;;;;;;;;;10358702;28;20017;-89
2023/12/15 11:47:52;;;;;;;;;;;;;;;;;;10330566;28;19914;-89
2023/12/15 11:52:56;;;;;;;;;;;;;;;;;;10362942;28;19916;-94
2023/12/15 11:57:59;;;;;;;;;;;;;;;;;;10306207;28;19926;-86
2023/12/15 12:03:00;;;;;;;;;;;;;;;;;;10339099;28;20463;-87
2023/12/15 12:08:02;;;;;;;;;;;;;;;;;;10271747;28;20008;-85
2023/12/15 12:13:02;;;;;;;;;;;;;;;;;;10278659;28;20000;-88
2023/12/15 12:18:02;;;;;;;;;;;;;;;;;;10242488;28;19917;-90
2023/12/15 12:23:24;;;;;;;;;;;;;;;;;;10259774;28;20008;-89
2023/12/15 12:28:27;;;;;;;;;;;;;;;;;;10330612;28;20338;-89
2023/12/15 12:33:29;;;;;;;;;;;;;;;;;;10303892;28;19926;-87
2023/12/15 12:38:30;;;;;;;;;;;;;;;;;;10303188;28;19957;-89
2023/12/15 12:43:39;;;;;;;;;;;;;;;;;;10286770;28;19929;-89
2023/12/15 12:48:46;;;;;;;;;;;;;;;;;;10312277;28;20594;-85
2023/12/15 12:53:50;;;;;;;;;;;;;;;;;;10275700;28;19930;-86
2023/12/15 12:58:50;;;;;;;;;;;;;;;;;;10298619;28;19926;-86
2023/12/15 13:03:51;;;;;;;;;;;;;;;;;;10274545;28;19929;-84
2023/12/15 13:08:55;;;;;;;;;;;;;;;;;;10283752;28;19998;-84
2023/12/15 13:14:01;;;;;;;;;;;;;;;;;;10310031;28;19922;-82
2023/12/15 13:19:02;;;;;;;;;;;;;;;;;;10261285;28;19922;-83
2023/12/15 13:24:03;;;;;;;;;;;;;;;;;;10284714;28;19930;-85
2023/12/15 13:29:04;;;;;;;;;;;;;;;;;;10268893;28;19966;-85
2023/12/15 13:34:04;;;;;;;;;;;;;;;;;;10226197;28;19931;-83
2023/12/15 13:39:04;;;;;;;;;;;;;;;;;;10205854;28;19973;-85
2023/12/15 13:44:06;;;;;;;;;;;;;;;;;;10250046;28;19934;-87
2023/12/15 13:49:07;;;;;;;;;;;;;;;;;;10264106;28;19941;-80
2023/12/15 13:54:07;;;;;;;;;;;;;;;;;;10246598;28;19933;-85
2023/12/15 13:59:08;;;;;;;;;;;;;;;;;;10236983;28;20735;-84
2023/12/15 14:04:08;;;;;;;;;;;;;;;;;;10247988;28;19933;-84
2023/12/15 14:09:09;;;;;;;;;;;;;;;;;;10318434;28;19922;-83
2023/12/15 14:14:09;;;;;;;;;;;;;;;;;;10307490;28;20275;-82
2023/12/15 14:19:09;;;;;;;;;;;;;;;;;;10290056;28;20342;-83
2023/12/15 14:24:11;;;;;;;;;;;;;;;;;;10292590;28;20296;-86
2023/12/15 14:29:11;;;;;;;;;;;;;;;;;;10301181;28;19922;-85
2023/12/15 14:34:11;;;;;;;;;;;;;;;;;;10329299;28;19937;-81
2023/12/15 14:39:11;;;;;;;;;;;;;;;;;;10349050;28;20303;-83
2023/12/15 14:44:13;;;;;;;;;;;;;;;;;;10327019;28;20298;-84
2023/12/15 14:49:14;;;;;;;;;;;;;;;;;;10328434;28;19928;-81
2023/12/15 14:54:15;;;;;;;;;;;;;;;;;;10281278;28;19927;-83
2023/12/15 14:59:15;;;;;;;;;;;;;;;;;;10340348;28;19918;-85
2023/12/15 15:04:15;;;;;;;;;;;;;;;;;;10335281;28;20073;-86
2023/12/15 15:09:18;;;;;;;;;;;;;;;;;;10292444;28;19940;-86
2023/12/15 15:14:18;;;;;;;;;;;;;;;;;;10300719;28;19926;-82
2023/12/15 15:19:18;;;;;;;;;;;;;;;;;;10305706;28;19997;-83
2023/12/15 15:24:18;;;;;;;;;;;;;;;;;;10316244;28;19987;-82
2023/12/15 15:29:20;;;;;;;;;;;;;;;;;;10298328;28;19957;-85
2023/12/15 15:34:20;;;;;;;;;;;;;;;;;;10290914;28;19932;-86
2023/12/15 15:39:21;;;;;;;;;;;;;;;;;;10273042;28;19922;-86
2023/12/15 15:44:22;;;;;;;;;;;;;;;;;;10298973;28;20521;-88
2023/12/15 15:49:22;;;;;;;;;;;;;;;;;;10311096;28;19922;-87
2023/12/15 15:54:22;;;;;;;;;;;;;;;;;;10318474;28;19933;-86
2023/12/15 15:59:24;;;;;;;;;;;;;;;;;;10305194;28;20011;-86
2023/12/15 16:04:24;;;;;;;;;;;;;;;;;;10319184;28;19929;-86
2023/12/15 16:09:27;;;;;;;;;;;;;;;;;;10288238;28;19946;-87
2023/12/15 16:14:31;;;;;;;;;;;;;;;;;;10315799;28;19907;-84
2023/12/15 16:19:33;;;;;;;;;;;;;;;;;;10300665;28;20009;-85
2023/12/15 16:24:34;;;;;;;;;;;;;;;;;;10510422;23;19926;-84
2023/12/15 16:29:37;;;;;;;;;;;;;;;;;;10427806;28;19937;-83
2023/12/15 16:34:37;;;;;;;;;;;;;;;;;;10338490;28;19937;-85
2023/12/15 16:39:37;;;;;;;;;;;;;;;;;;10395459;28;19906;-85
2023/12/15 16:44:38;;;;;;;;;;;;;;;;;;10422338;28;19914;-88
2023/12/15 16:49:38;;;;;;;;;;;;;;;;;;10395686;28;19914;-83
2023/12/15 16:54:38;;;;;;;;;;;;;;;;;;10363508;28;19917;-85
2023/12/15 16:59:41;;;;;;;;;;;;;;;;;;10354164;28;19928;-84
2023/12/15 17:04:43;;;;;;;;;;;;;;;;;;10378801;28;19929;-85
2023/12/15 17:09:44;;;;;;;;;;;;;;;;;;10361345;28;19922;-84
2023/12/15 17:14:44;;;;;;;;;;;;;;;;;;10386729;28;19921;-84
2023/12/15 17:19:44;;;;;;;;;;;;;;;;;;10382075;23;19930;-86
2023/12/15 17:24:46;;;;;;;;;;;;;;;;;;10529043;23;19931;-85
2023/12/15 17:29:47;;;;;;;;;;;;;;;;;;10330041;28;19984;-83
2023/12/15 17:34:49;;;;;;;;;;;;;;;;;;10326105;28;20316;-84
2023/12/15 17:45:08;;;;;;;;;;;;;;;;;;10306104;28;19941;-82
2023/12/15 17:50:08;;;;;;;;;;;;;;;;;;10378997;23;19913;-86
2023/12/15 17:55:09;;;;;;;;;;;;;;;;;;10322992;28;19922;-85
2023/12/15 18:00:18;;;;;;;;;;;;;;;;;;10311705;28;20016;-84
2023/12/15 18:05:51;;;;;;;;;;;;;;;;;;10325969;28;19921;-89
2023/12/15 18:11:15;;;;;;;;;;;;;;;;;;10412026;23;19949;-83
2023/12/15 18:16:18;;;;;;;;;;;;;;;;;;10375332;28;19912;-85
2023/12/15 18:21:20;;;;;;;;;;;;;;;;;;10368885;28;19925;-86
2023/12/15 18:26:21;;;;;;;;;;;;;;;;;;10269963;28;19933;-84
2023/12/15 18:31:24;;;;;;;;;;;;;;;;;;10256004;28;19930;-85
2023/12/15 18:36:26;;;;;;;;;;;;;;;;;;10261022;28;19961;-86
2023/12/15 18:41:27;;;;;;;;;;;;;;;;;;10287104;28;20024;-86
2023/12/15 18:46:39;;;;;;;;;;;;;;;;;;10275076;28;19922;-84
2023/12/15 18:51:59;;;;;;;;;;;;;;;;;;10318613;28;20282;-87
2023/12/15 18:57:01;;;;;;;;;;;;;;;;;;10246607;28;20005;-84
2023/12/15 19:02:04;;;;;;;;;;;;;;;;;;10286482;28;20377;-83
2023/12/15 19:07:14;;;;;;;;;;;;;;;;;;10235963;28;19981;-87
2023/12/15 19:12:17;;;;;;;;;;;;;;;;;;10292393;28;19932;-82
2023/12/15 19:17:21;;;;;;;;;;;;;;;;;;10262684;28;19964;-88
2023/12/15 19:22:26;;;;;;;;;;;;;;;;;;10265762;28;19940;-84
2023/12/15 19:27:34;;;;;;;;;;;;;;;;;;10299827;28;19921;-88
2023/12/15 19:32:41;;;;;;;;;;;;;;;;;;10309508;28;20048;-85
2023/12/15 19:38:00;;;;;;;;;;;;;;;;;;10302589;28;19914;-85
2023/12/15 19:43:06;;;;;;;;;;;;;;;;;;10296007;28;19936;-85
2023/12/15 19:48:08;;;;;;;;;;;;;;;;;;10284425;28;20005;-84
2023/12/15 19:53:21;;;;;;;;;;;;;;;;;;10271457;28;19949;-85
2023/12/15 19:58:21;;;;;;;;;;;;;;;;;;10289558;28;19989;-85
2023/12/15 20:03:28;;;;;;;;;;;;;;;;;;10284662;28;21327;-83
2023/12/15 20:08:28;;;;;;;;;;;;;;;;;;10278092;28;20011;-82
2023/12/15 20:13:29;;;;;;;;;;;;;;;;;;10279762;28;20385;-83
2023/12/15 20:18:30;;;;;;;;;;;;;;;;;;10305834;28;19979;-80
2023/12/15 20:23:30;;;;;;;;;;;;;;;;;;10304492;28;19938;-82
2023/12/15 20:28:32;;;;;;;;;;;;;;;;;;10280137;28;19925;-81
2023/12/15 20:33:32;;;;;;;;;;;;;;;;;;10297899;28;20367;-82
2023/12/15 20:38:32;;;;;;;;;;;;;;;;;;10271161;28;19929;-82
2023/12/15 20:43:35;;;;;;;;;;;;;;;;;;10287026;28;20028;-84
2023/12/15 20:48:36;;;;;;;;;;;;;;;;;;10307778;28;19926;-83
2023/12/15 20:53:38;;;;;;;;;;;;;;;;;;10274271;28;19922;-83
2023/12/15 20:58:38;;;;;;;;;;;;;;;;;;10303335;28;20583;-84
2023/12/15 21:03:43;;;;;;;;;;;;;;;;;;10345335;28;19934;-83
2023/12/15 21:08:44;;;;;;;;;;;;;;;;;;10344971;28;20016;-86
2023/12/15 21:13:51;;;;;;;;;;;;;;;;;;10372839;28;19941;-84
2023/12/15 21:18:51;;;;;;;;;;;;;;;;;;10380008;23;19972;-84
2023/12/15 21:23:59;;;;;;;;;;;;;;;;;;10368430;28;19925;-86
2023/12/15 21:28:59;;;;;;;;;;;;;;;;;;10376074;28;19925;-84
2023/12/15 21:34:03;;;;;;;;;;;;;;;;;;10367921;28;19918;-84
2023/12/15 21:39:03;;;;;;;;;;;;;;;;;;10321915;28;19922;-83
2023/12/15 21:44:03;;;;;;;;;;;;;;;;;;10303766;28;20016;-83
2023/12/15 21:49:05;;;;;;;;;;;;;;;;;;10299201;28;19922;-83
2023/12/15 21:54:09;;;;;;;;;;;;;;;;;;10287985;28;19922;-85
2023/12/15 21:59:12;;;;;;;;;;;;;;;;;;10237993;28;19926;-87
2023/12/15 22:04:13;;;;;;;;;;;;;;;;;;10221853;28;19933;-84
2023/12/15 22:09:13;;;;;;;;;;;;;;;;;;10246093;28;19925;-83
2023/12/15 22:14:17;;;;;;;;;;;;;;;;;;10236327;28;19922;-84
2023/12/15 22:19:17;;;;;;;;;;;;;;;;;;10235847;28;20537;-85
2023/12/15 22:24:17;;;;;;;;;;;;;;;;;;10203921;28;19994;-82
2023/12/15 22:29:19;;;;;;;;;;;;;;;;;;10201525;28;19930;-84
2023/12/15 22:34:20;;;;;;;;;;;;;;;;;;10236432;28;20020;-83
2023/12/15 22:39:21;;;;;;;;;;;;;;;;;;10248263;28;19922;-84
2023/12/15 22:44:21;;;;;;;;;;;;;;;;;;10218170;28;19965;-83
2023/12/15 22:49:22;;;;;;;;;;;;;;;;;;10195007;28;19919;-83
2023/12/15 22:54:22;;;;;;;;;;;;;;;;;;10224260;28;19918;-84
2023/12/15 22:59:23;;;;;;;;;;;;;;;;;;10216405;28;19957;-83
2023/12/15 23:04:26;;;;;;;;;;;;;;;;;;10222267;28;20277;-83
2023/12/15 23:09:27;;;;;;;;;;;;;;;;;;10280559;28;19927;-82
2023/12/15 23:14:28;;;;;;;;;;;;;;;;;;10303505;28;19940;-81
2023/12/15 23:19:30;;;;;;;;;;;;;;;;;;10296346;28;19965;-83
2023/12/15 23:24:31;;;;;;;;;;;;;;;;;;10287597;28;19944;-83
2023/12/15 23:29:31;;;;;;;;;;;;;;;;;;10311072;28;19926;-84
2023/12/15 23:34:32;;;;;;;;;;;;;;;;;;10303565;28;19913;-84
2023/12/15 23:39:34;;;;;;;;;;;;;;;;;;10251957;28;20424;-84
2023/12/15 23:44:34;;;;;;;;;;;;;;;;;;10268400;28;19934;-83
2023/12/15 23:49:35;;;;;;;;;;;;;;;;;;10311952;28;19907;-84
2023/12/15 23:54:35;;;;;;;;;;;;;;;;;;10278772;28;19918;-84
2023/12/15 23:59:36;;;;;;;;;;;;;;;;;;10277330;28;20390;-85
